createdAt,value
2023-01-13T00:00:09.119Z,6.72
2023-01-13T00:02:39.730Z,6.85
2023-01-13T00:05:07.931Z,6.70
2023-01-13T00:07:35.518Z,7.45
2023-01-13T00:10:10.539Z,7.00
2023-01-13T00:12:40.639Z,7.22
2023-01-13T00:15:09.473Z,7.00
2023-01-13T00:17:37.195Z,6.82
2023-01-13T00:20:07.562Z,6.82
2023-01-13T00:22:35.739Z,7.00
2023-01-13T00:25:04.431Z,6.95
2023-01-13T00:27:32.723Z,7.20
2023-01-13T00:30:00.376Z,6.87
2023-01-13T00:32:28.615Z,7.70
2023-01-13T00:34:56.499Z,6.93
2023-01-13T00:37:24.035Z,6.87
2023-01-13T00:39:52.430Z,6.28
2023-01-13T00:42:38.668Z,7.35
2023-01-13T00:45:06.700Z,7.50
2023-01-13T00:47:34.455Z,7.77
2023-01-13T00:50:02.228Z,7.60
2023-01-13T00:52:32.434Z,8.00
2023-01-13T00:55:00.888Z,8.32
2023-01-13T00:57:28.473Z,7.90
2023-01-13T00:59:56.267Z,8.27
2023-01-13T01:02:24.141Z,7.37
2023-01-13T01:04:51.812Z,7.87
2023-01-13T01:07:19.265Z,7.95
2023-01-13T01:09:47.043Z,7.78
2023-01-13T01:12:14.637Z,7.77
2023-01-13T01:14:42.147Z,7.70
2023-01-13T01:17:17.746Z,8.50
2023-01-13T01:19:45.437Z,7.35
2023-01-13T01:22:13.344Z,7.90
2023-01-13T01:24:40.820Z,8.23
2023-01-13T01:27:08.303Z,7.60
2023-01-13T01:29:36.129Z,7.03
2023-01-13T01:32:03.666Z,8.05
2023-01-13T01:34:31.242Z,7.60
2023-01-13T01:36:59.030Z,7.60
2023-01-13T01:39:26.677Z,7.00
2023-01-13T01:42:12.397Z,6.97
2023-01-13T01:44:43.157Z,7.30
2023-01-13T01:47:11.925Z,7.15
2023-01-13T01:49:40.422Z,6.73
2023-01-13T01:52:21.765Z,7.07
2023-01-13T01:54:58.461Z,6.95
2023-01-13T01:57:57.033Z,6.22
2023-01-13T02:00:26.350Z,6.82
2023-01-13T02:02:54.719Z,6.63
2023-01-13T02:05:22.535Z,7.32
2023-01-13T02:07:52.673Z,6.97
2023-01-13T02:10:22.613Z,7.12
2023-01-13T02:12:52.245Z,6.35
2023-01-13T02:15:27.722Z,6.30
2023-01-13T02:18:25.336Z,6.18
2023-01-13T02:21:08.638Z,5.68
2023-01-13T02:24:21.063Z,6.28
2023-01-13T02:27:13.876Z,5.70
2023-01-13T02:30:16.326Z,5.40
2023-01-13T02:32:50.083Z,4.70
2023-01-13T02:35:20.388Z,5.18
2023-01-13T02:37:49.004Z,5.47
2023-01-13T02:40:47.900Z,5.55
2023-01-13T02:43:42.371Z,4.70
2023-01-13T02:46:15.102Z,5.10
2023-01-13T02:48:45.039Z,4.50
2023-01-13T02:51:15.774Z,4.97
2023-01-13T02:53:51.229Z,4.20
2023-01-13T02:56:20.057Z,4.60
2023-01-13T02:58:49.101Z,4.60
2023-01-13T03:01:17.068Z,4.75
2023-01-13T03:03:44.768Z,4.53
2023-01-13T03:06:15.545Z,4.10
2023-01-13T03:08:49.161Z,4.50
2023-01-13T03:11:19.726Z,5.22
2023-01-13T03:14:05.762Z,6.37
2023-01-13T03:17:21.866Z,5.80
2023-01-13T03:20:22.888Z,5.62
2023-01-13T03:23:02.689Z,6.10
2023-01-13T03:25:35.934Z,4.10
2023-01-13T03:28:06.449Z,4.95
2023-01-13T03:30:38.117Z,4.62
2023-01-13T03:33:10.385Z,5.47
2023-01-13T03:35:44.257Z,8.07
2023-01-13T03:38:19.126Z,4.35
2023-01-13T03:41:17.955Z,4.15
2023-01-13T03:44:09.270Z,4.75
2023-01-13T03:46:52.271Z,7.70
2023-01-13T03:49:23.922Z,6.27
2023-01-13T03:51:59.225Z,7.18
2023-01-13T03:54:28.437Z,6.07
2023-01-13T03:56:59.739Z,7.28
2023-01-13T03:59:32.191Z,8.55
2023-01-13T04:02:08.438Z,6.37
2023-01-13T04:04:42.921Z,5.97
2023-01-13T04:07:36.950Z,8.32
2023-01-13T04:10:08.107Z,6.87
2023-01-13T04:13:02.216Z,6.68
2023-01-13T04:15:33.368Z,5.80
2023-01-13T04:18:20.855Z,6.95
2023-01-13T04:20:50.961Z,6.30
2023-01-13T04:23:20.408Z,6.72
2023-01-13T04:25:48.583Z,6.75
2023-01-13T04:28:17.263Z,6.50
2023-01-13T04:30:45.596Z,6.00
2023-01-13T04:33:14.210Z,6.82
2023-01-13T04:35:42.025Z,6.37
2023-01-13T04:38:15.474Z,6.80
2023-01-13T04:40:44.181Z,5.90
2023-01-13T04:43:12.234Z,6.87
2023-01-13T04:45:39.771Z,5.75
2023-01-13T04:48:07.955Z,5.47
2023-01-13T04:50:36.044Z,4.90
2023-01-13T04:53:03.628Z,4.90
2023-01-13T04:55:32.040Z,5.40
2023-01-13T04:58:07.487Z,4.93
2023-01-13T05:00:36.027Z,5.65
2023-01-13T05:03:04.212Z,4.70
2023-01-13T05:05:31.847Z,5.07
2023-01-13T05:07:59.873Z,5.07
2023-01-13T05:10:27.611Z,5.30
2023-01-13T05:13:13.789Z,5.75
2023-01-13T05:16:00.953Z,5.15
2023-01-13T05:18:29.807Z,5.70
2023-01-13T05:20:57.854Z,5.18
2023-01-13T05:23:44.108Z,5.87
2023-01-13T05:26:11.894Z,5.20
2023-01-13T05:28:39.389Z,5.65
2023-01-13T05:31:06.981Z,5.47
2023-01-13T05:33:36.052Z,4.72
2023-01-13T05:36:03.975Z,4.80
2023-01-13T05:38:31.950Z,5.35
2023-01-13T05:41:18.661Z,6.07
2023-01-13T05:43:46.277Z,4.93
2023-01-13T05:46:14.937Z,5.78
2023-01-13T05:48:42.976Z,4.97
2023-01-13T05:51:12.372Z,5.18
2023-01-13T05:53:43.595Z,4.80
2023-01-13T05:56:11.324Z,4.63
2023-01-13T05:58:39.221Z,4.78
2023-01-13T06:01:11.297Z,4.80
2023-01-13T06:03:39.297Z,4.75
2023-01-13T06:06:09.050Z,5.18
2023-01-13T06:08:39.436Z,5.90
2023-01-13T06:11:10.421Z,5.05
2023-01-13T06:13:37.978Z,5.62
2023-01-13T06:16:05.701Z,6.05
2023-01-13T06:18:33.686Z,6.18
2023-01-13T06:21:01.280Z,5.73
2023-01-13T06:23:29.351Z,5.35
2023-01-13T06:26:20.643Z,4.65
2023-01-13T06:28:50.093Z,4.95
2023-01-13T06:31:18.373Z,7.72
2023-01-13T06:33:52.509Z,9.93
2023-01-13T06:36:24.175Z,5.57
2023-01-13T06:38:53.934Z,4.75
2023-01-13T06:41:42.179Z,4.40
2023-01-13T06:44:09.810Z,4.25
2023-01-13T06:46:37.808Z,5.10
2023-01-13T06:49:05.651Z,6.18
2023-01-13T06:51:33.143Z,4.87
2023-01-13T06:54:01.030Z,4.90
2023-01-13T06:56:28.582Z,5.20
2023-01-13T06:58:56.084Z,6.07
2023-01-13T07:01:24.127Z,6.93
2023-01-13T07:03:51.891Z,5.32
2023-01-13T07:06:19.489Z,6.82
2023-01-13T07:08:47.302Z,5.93
2023-01-13T07:11:14.989Z,4.97
2023-01-13T07:14:00.827Z,6.20
2023-01-13T07:16:28.781Z,5.82
2023-01-13T07:18:56.533Z,6.30
2023-01-13T07:21:24.185Z,6.57
2023-01-13T07:23:52.037Z,5.53
2023-01-13T07:26:19.635Z,5.30
2023-01-13T07:28:47.274Z,6.35
2023-01-13T07:31:18.354Z,5.53
2023-01-13T07:33:46.044Z,6.00
2023-01-13T07:36:14.433Z,6.23
2023-01-13T07:38:44.531Z,5.85
2023-01-13T07:41:32.751Z,5.75
2023-01-13T07:44:04.757Z,5.85
2023-01-13T07:46:33.216Z,5.70
2023-01-13T07:49:04.887Z,5.53
2023-01-13T07:51:32.603Z,5.50
2023-01-13T07:54:00.152Z,5.95
2023-01-13T07:56:27.972Z,6.68
2023-01-13T07:58:55.607Z,6.80
2023-01-13T08:01:23.355Z,5.82
2023-01-13T08:03:51.381Z,5.55
2023-01-13T08:06:19.217Z,5.65
2023-01-13T08:08:46.769Z,5.32
2023-01-13T08:11:14.521Z,6.20
2023-01-13T08:13:42.065Z,6.15
2023-01-13T08:16:12.706Z,5.85
2023-01-13T08:18:41.517Z,5.80
2023-01-13T08:21:14.259Z,4.62
2023-01-13T08:23:43.716Z,5.30
2023-01-13T08:26:17.188Z,5.05
2023-01-13T08:28:45.768Z,4.87
2023-01-13T08:31:16.213Z,4.37
2023-01-13T08:33:44.516Z,4.45
2023-01-13T08:36:13.299Z,4.43
2023-01-13T08:38:41.519Z,4.60
2023-01-13T08:41:14.627Z,5.12
2023-01-13T08:43:42.569Z,5.10
2023-01-13T08:46:10.226Z,5.40
2023-01-13T08:48:37.857Z,4.73
2023-01-13T08:51:07.992Z,5.15
2023-01-13T08:53:35.645Z,4.53
2023-01-13T08:56:07.700Z,4.87
2023-01-13T08:58:35.525Z,4.68
2023-01-13T09:01:07.089Z,4.37
2023-01-13T09:03:35.074Z,4.72
2023-01-13T09:06:02.886Z,4.70
2023-01-13T09:08:30.645Z,4.68
2023-01-13T09:10:58.634Z,3.78
2023-01-13T09:13:26.488Z,4.20
2023-01-13T09:15:56.880Z,4.43
2023-01-13T09:18:24.946Z,5.25
2023-01-13T09:20:52.618Z,5.90
2023-01-13T09:23:20.163Z,5.43
2023-01-13T09:25:49.244Z,6.50
2023-01-13T09:28:16.941Z,6.28
2023-01-13T09:30:44.560Z,7.25
2023-01-13T09:33:31.062Z,8.20
2023-01-13T09:35:59.345Z,8.85
2023-01-13T09:38:27.687Z,9.00
2023-01-13T09:40:56.457Z,10.55
2023-01-13T09:43:51.911Z,9.13
2023-01-13T09:46:47.223Z,9.45
2023-01-13T09:49:20.962Z,8.90
2023-01-13T09:52:06.476Z,8.37
2023-01-13T09:54:39.741Z,8.35
2023-01-13T09:57:15.683Z,8.75
2023-01-13T09:59:43.901Z,8.27
2023-01-13T10:02:27.185Z,8.55
2023-01-13T10:05:17.935Z,8.07
2023-01-13T10:07:55.857Z,7.82
2023-01-13T10:10:38.891Z,8.13
2023-01-13T10:13:20.241Z,9.10
2023-01-13T10:15:54.691Z,8.35
2023-01-13T10:18:33.155Z,9.93
2023-01-13T10:21:04.532Z,9.95
2023-01-13T10:23:38.872Z,9.32
2023-01-13T10:26:25.257Z,9.07
2023-01-13T10:28:53.992Z,9.38
2023-01-13T10:31:22.757Z,8.10
2023-01-13T10:33:58.997Z,9.35
2023-01-13T10:36:27.313Z,9.27
2023-01-13T10:39:07.174Z,9.45
2023-01-13T10:41:36.317Z,8.55
2023-01-13T10:44:09.409Z,9.27
2023-01-13T10:46:55.776Z,9.25
2023-01-13T10:49:26.703Z,9.27
2023-01-13T10:51:54.656Z,11.60
2023-01-13T10:54:24.105Z,9.77
2023-01-13T10:57:14.931Z,9.50
2023-01-13T10:59:42.987Z,8.27
2023-01-13T11:02:25.266Z,9.48
2023-01-13T11:04:53.885Z,9.00
2023-01-13T11:07:28.641Z,8.65
2023-01-13T11:10:05.805Z,8.70
2023-01-13T11:13:00.895Z,8.68
2023-01-13T11:15:50.181Z,8.40
2023-01-13T11:18:36.692Z,8.75
2023-01-13T11:21:09.733Z,8.52
2023-01-13T11:23:40.880Z,8.87
2023-01-13T11:26:26.741Z,9.50
2023-01-13T11:29:08.939Z,8.82
2023-01-13T11:31:40.555Z,10.05
2023-01-13T11:34:15.858Z,9.15
2023-01-13T11:36:51.146Z,8.03
2023-01-13T11:39:28.087Z,8.82
2023-01-13T11:42:21.751Z,7.87
2023-01-13T11:45:27.823Z,8.05
2023-01-13T11:47:58.759Z,8.60
2023-01-13T11:50:34.695Z,8.70
2023-01-13T11:53:26.804Z,8.55
2023-01-13T11:55:54.263Z,8.15
2023-01-13T11:58:50.211Z,9.07
2023-01-13T12:01:27.921Z,8.60
2023-01-13T12:04:14.499Z,9.20
2023-01-13T12:06:43.514Z,9.75
2023-01-13T12:09:30.225Z,9.00
2023-01-13T12:12:20.095Z,8.60
2023-01-13T12:15:23.764Z,8.77
2023-01-13T12:18:11.474Z,8.10
2023-01-13T12:21:00.046Z,7.97
2023-01-13T12:23:39.032Z,8.50
2023-01-13T12:26:10.089Z,9.70
2023-01-13T12:28:56.041Z,9.07
2023-01-13T12:31:25.093Z,10.00
2023-01-13T12:34:10.142Z,9.00
2023-01-13T12:36:46.950Z,8.82
2023-01-13T12:39:33.173Z,8.35
2023-01-13T12:42:34.416Z,8.43
2023-01-13T12:45:06.667Z,7.90
2023-01-13T12:47:36.944Z,9.40
2023-01-13T12:50:23.686Z,8.63
2023-01-13T12:52:58.465Z,9.15
2023-01-13T12:55:34.992Z,9.40
2023-01-13T12:58:06.483Z,9.03
2023-01-13T13:00:58.213Z,10.18
2023-01-13T13:04:07.711Z,11.07
2023-01-13T13:06:37.765Z,8.95
2023-01-13T13:09:17.573Z,10.25
2023-01-13T13:11:59.269Z,9.37
2023-01-13T13:14:39.805Z,10.57
2023-01-13T13:17:19.819Z,10.88
2023-01-13T13:19:48.969Z,11.18
2023-01-13T13:22:21.831Z,12.95
2023-01-13T13:24:49.678Z,12.03
2023-01-13T13:27:17.951Z,11.77
2023-01-13T13:29:48.270Z,12.63
2023-01-13T13:32:32.438Z,13.60
2023-01-13T13:35:09.115Z,12.32
2023-01-13T13:38:06.249Z,13.70
2023-01-13T13:40:58.990Z,13.38
2023-01-13T13:43:46.369Z,13.65
2023-01-13T13:46:45.909Z,16.52
2023-01-13T13:49:37.416Z,14.63
2023-01-13T13:52:22.558Z,15.43
2023-01-13T13:54:52.966Z,14.98
2023-01-13T13:57:23.592Z,16.12
2023-01-13T13:59:58.094Z,15.65
2023-01-13T14:02:31.238Z,15.68
2023-01-13T14:05:19.158Z,15.70
2023-01-13T14:07:49.373Z,16.60
2023-01-13T14:10:25.788Z,17.80
2023-01-13T14:12:53.367Z,16.52
2023-01-13T14:15:31.684Z,14.87
2023-01-13T14:18:01.709Z,17.13
2023-01-13T14:20:30.077Z,16.98
2023-01-13T14:23:01.773Z,16.95
2023-01-13T14:25:34.682Z,14.87
2023-01-13T14:28:32.322Z,17.30
2023-01-13T14:31:01.356Z,16.70
2023-01-13T14:33:35.399Z,16.60
2023-01-13T14:36:12.801Z,15.80
2023-01-13T14:38:41.544Z,16.40
2023-01-13T14:41:22.344Z,17.30
2023-01-13T14:43:51.932Z,15.97
2023-01-13T14:46:23.050Z,16.37
2023-01-13T14:48:53.906Z,16.58
2023-01-13T14:51:26.911Z,16.42
2023-01-13T14:53:54.793Z,15.93
2023-01-13T14:56:43.588Z,17.30
2023-01-13T14:59:51.793Z,14.73
2023-01-13T15:02:37.497Z,15.13
2023-01-13T15:05:16.908Z,15.95
2023-01-13T15:07:55.242Z,16.40
2023-01-13T15:10:25.939Z,17.03
2023-01-13T15:12:55.634Z,15.80
2023-01-13T15:15:30.268Z,15.32
2023-01-13T15:17:59.121Z,14.15
2023-01-13T15:20:27.750Z,15.40
2023-01-13T15:22:57.998Z,15.17
2023-01-13T15:25:25.889Z,14.55
2023-01-13T15:27:53.801Z,14.20
2023-01-13T15:30:26.645Z,14.25
2023-01-13T15:32:55.968Z,13.25
2023-01-13T15:35:25.354Z,12.80
2023-01-13T15:37:53.173Z,13.43
2023-01-13T15:40:25.401Z,13.25
2023-01-13T15:43:11.537Z,13.90
2023-01-13T15:45:57.944Z,13.05
2023-01-13T15:48:28.154Z,12.77
2023-01-13T15:50:56.560Z,13.15
2023-01-13T15:53:24.524Z,12.55
2023-01-13T15:55:54.269Z,12.52
2023-01-13T15:58:27.082Z,12.02
2023-01-13T16:00:55.963Z,11.50
2023-01-13T16:03:23.955Z,11.18
2023-01-13T16:05:51.773Z,11.50
2023-01-13T16:08:22.056Z,11.18
2023-01-13T16:10:50.522Z,12.23
2023-01-13T16:13:18.418Z,12.93
2023-01-13T16:15:48.467Z,12.30
2023-01-13T16:18:24.219Z,11.40
2023-01-13T16:20:53.562Z,13.40
2023-01-13T16:23:22.753Z,12.75
2023-01-13T16:25:50.981Z,11.33
2023-01-13T16:28:28.206Z,12.43
2023-01-13T16:30:56.436Z,12.75
2023-01-13T16:33:24.117Z,13.80
2023-01-13T16:36:10.395Z,12.80
2023-01-13T16:38:39.807Z,12.73
2023-01-13T16:41:07.922Z,14.18
2023-01-13T16:43:36.119Z,13.73
2023-01-13T16:46:16.569Z,13.35
2023-01-13T16:48:44.470Z,11.40
2023-01-13T16:51:12.507Z,11.47
2023-01-13T16:53:40.468Z,13.23
2023-01-13T16:56:20.041Z,12.98
2023-01-13T16:58:50.898Z,12.63
2023-01-13T17:01:20.897Z,13.75
2023-01-13T17:03:49.432Z,12.07
2023-01-13T17:06:19.037Z,12.82
2023-01-13T17:08:46.629Z,12.05
2023-01-13T17:11:15.066Z,11.60
2023-01-13T17:13:42.724Z,12.13
2023-01-13T17:16:17.088Z,12.57
2023-01-13T17:18:45.994Z,12.40
2023-01-13T17:21:14.900Z,12.20
2023-01-13T17:23:42.755Z,12.73
2023-01-13T17:26:22.957Z,10.63
2023-01-13T17:28:50.540Z,11.17
2023-01-13T17:31:18.763Z,11.23
2023-01-13T17:33:46.568Z,10.98
2023-01-13T17:36:16.363Z,11.12
2023-01-13T17:38:44.414Z,13.35
2023-01-13T17:41:12.030Z,12.40
2023-01-13T17:43:39.798Z,13.07
2023-01-13T17:46:12.451Z,12.73
2023-01-13T17:48:40.085Z,12.88
2023-01-13T17:51:10.734Z,12.15
2023-01-13T17:53:41.550Z,11.73
2023-01-13T17:56:10.385Z,11.40
2023-01-13T17:58:38.780Z,11.40
2023-01-13T18:01:11.100Z,12.23
2023-01-13T18:03:39.791Z,11.05
2023-01-13T18:06:10.728Z,10.90
2023-01-13T18:08:38.530Z,12.43
2023-01-13T18:11:06.399Z,12.10
2023-01-13T18:13:37.501Z,11.73
2023-01-13T18:16:11.426Z,12.02
2023-01-13T18:18:40.865Z,12.10
2023-01-13T18:21:36.370Z,13.30
2023-01-13T18:24:23.782Z,13.45
2023-01-13T18:27:09.978Z,12.20
2023-01-13T18:29:37.888Z,12.98
2023-01-13T18:32:07.626Z,11.90
2023-01-13T18:34:39.186Z,12.25
2023-01-13T18:37:08.917Z,13.07
2023-01-13T18:39:39.763Z,13.27
2023-01-13T18:42:27.505Z,13.35
2023-01-13T18:44:57.027Z,14.33
2023-01-13T18:47:33.711Z,13.55
2023-01-13T18:50:01.871Z,14.13
2023-01-13T18:52:29.902Z,13.52
2023-01-13T18:54:57.933Z,15.05
2023-01-13T18:57:25.707Z,15.63
2023-01-13T18:59:56.784Z,13.43
2023-01-13T19:02:26.497Z,11.55
2023-01-13T19:04:54.558Z,14.20
2023-01-13T19:07:24.342Z,14.93
2023-01-13T19:09:55.370Z,14.37
2023-01-13T19:12:26.378Z,14.93
2023-01-13T19:14:55.036Z,15.05
2023-01-13T19:17:24.408Z,15.05
2023-01-13T19:19:54.183Z,14.43
2023-01-13T19:22:23.748Z,15.37
2023-01-13T19:24:52.123Z,15.68
2023-01-13T19:27:20.648Z,16.85
2023-01-13T19:29:52.825Z,16.83
2023-01-13T19:32:21.922Z,15.05
2023-01-13T19:34:51.211Z,17.23
2023-01-13T19:37:19.565Z,15.60
2023-01-13T19:39:48.796Z,16.20
2023-01-13T19:42:35.275Z,19.02
2023-01-13T19:45:22.746Z,18.83
2023-01-13T19:47:53.505Z,16.60
2023-01-13T19:50:21.681Z,18.00
2023-01-13T19:52:49.224Z,17.77
2023-01-13T19:55:16.997Z,17.58
2023-01-13T19:57:45.196Z,18.65
2023-01-13T20:00:15.499Z,18.47
2023-01-13T20:02:49.338Z,17.48
2023-01-13T20:05:21.241Z,19.30
2023-01-13T20:07:50.670Z,19.77
2023-01-13T20:10:20.523Z,20.45
2023-01-13T20:12:48.843Z,20.23
2023-01-13T20:15:17.345Z,18.83
2023-01-13T20:17:45.518Z,20.73
2023-01-13T20:20:15.964Z,17.45
2023-01-13T20:22:44.805Z,21.02
2023-01-13T20:25:16.823Z,19.30
2023-01-13T20:27:46.012Z,19.83
2023-01-13T20:30:14.911Z,20.08
2023-01-13T20:32:45.785Z,19.55
2023-01-13T20:35:14.258Z,20.75
2023-01-13T20:37:43.061Z,20.53
2023-01-13T20:40:14.771Z,19.40
2023-01-13T20:42:45.216Z,19.65
2023-01-13T20:45:16.993Z,18.23
2023-01-13T20:47:45.810Z,13.77
2023-01-13T20:50:14.434Z,14.67
2023-01-13T20:52:43.283Z,17.58
2023-01-13T20:55:11.952Z,16.40
2023-01-13T20:57:41.095Z,17.35
2023-01-13T21:00:10.470Z,17.12
2023-01-13T21:02:40.841Z,18.23
2023-01-13T21:05:09.649Z,17.15
2023-01-13T21:07:37.752Z,18.17
2023-01-13T21:10:07.183Z,17.30
2023-01-13T21:12:53.757Z,17.98
2023-01-13T21:15:22.119Z,15.67
2023-01-13T21:18:09.893Z,16.40
2023-01-13T21:20:38.692Z,16.90
2023-01-13T21:23:07.536Z,17.23
2023-01-13T21:25:37.240Z,15.75
2023-01-13T21:28:11.066Z,14.57
2023-01-13T21:30:39.723Z,14.40
2023-01-13T21:33:08.250Z,13.43
2023-01-13T21:35:38.297Z,14.13
2023-01-13T21:38:05.974Z,13.77
2023-01-13T21:40:33.812Z,13.73
2023-01-13T21:43:19.810Z,12.77
2023-01-13T21:46:06.789Z,14.82
2023-01-13T21:48:34.489Z,15.25
2023-01-13T21:51:02.371Z,16.00
2023-01-13T21:53:29.952Z,14.17
2023-01-13T21:55:57.459Z,15.32
2023-01-13T21:58:25.373Z,16.73
2023-01-13T22:00:54.064Z,17.10
2023-01-13T22:03:22.277Z,18.27
2023-01-13T22:05:54.899Z,16.57
2023-01-13T22:08:22.878Z,16.65
2023-01-13T22:11:00.483Z,16.62
2023-01-13T22:13:48.113Z,16.75
2023-01-13T22:16:16.026Z,17.05
2023-01-13T22:18:43.963Z,18.63
2023-01-13T22:21:11.573Z,20.27
2023-01-13T22:23:39.236Z,20.80
2023-01-13T22:26:07.860Z,22.15
2023-01-13T22:28:42.718Z,21.17
2023-01-13T22:31:12.744Z,21.50
2023-01-13T22:33:41.118Z,21.05
2023-01-13T22:36:09.832Z,23.08
2023-01-13T22:38:37.959Z,21.77
2023-01-13T22:41:07.683Z,21.15
2023-01-13T22:43:36.265Z,21.73
2023-01-13T22:46:06.919Z,21.33
2023-01-13T22:48:34.894Z,21.02
2023-01-13T22:51:16.208Z,21.12
2023-01-13T22:53:44.397Z,19.30
2023-01-13T22:56:20.839Z,16.03
2023-01-13T22:58:53.444Z,16.62
2023-01-13T23:01:21.125Z,15.20
2023-01-13T23:03:49.137Z,14.10
2023-01-13T23:06:18.308Z,13.27
2023-01-13T23:08:46.531Z,11.63
2023-01-13T23:11:16.230Z,11.40
2023-01-13T23:13:44.091Z,11.25
2023-01-13T23:16:21.179Z,11.68
2023-01-13T23:18:49.178Z,11.68
2023-01-13T23:21:28.765Z,11.40
2023-01-13T23:23:58.551Z,10.52
2023-01-13T23:26:26.968Z,11.30
2023-01-13T23:28:58.641Z,10.38
2023-01-13T23:31:26.693Z,9.93
2023-01-13T23:33:54.335Z,9.27
2023-01-13T23:36:24.399Z,10.65
2023-01-13T23:38:53.429Z,9.57
2023-01-13T23:41:25.482Z,8.55
2023-01-13T23:44:00.574Z,9.80
2023-01-13T23:46:29.893Z,12.70
2023-01-13T23:48:57.948Z,12.70
2023-01-13T23:51:27.520Z,13.55
2023-01-13T23:53:55.184Z,13.98
2023-01-13T23:56:25.399Z,13.32
2023-01-13T23:58:53.433Z,13.57
